sensor_id;sensor_type;location;lat;lon;timestamp;temperature;humidity
5806;DHT22;2929;50.810;8.342;2024-02-15T00:02:00;9.30;99.90
5806;DHT22;2929;50.810;8.342;2024-02-15T00:04:27;9.40;99.90
5806;DHT22;2929;50.810;8.342;2024-02-15T00:06:54;9.30;99.90
5806;DHT22;2929;50.810;8.342;2024-02-15T00:09:21;9.30;99.90
5806;DHT22;2929;50.810;8.342;2024-02-15T00:11:48;9.30;99.90
5806;DHT22;2929;50.810;8.342;2024-02-15T00:14:15;9.30;99.90
5806;DHT22;2929;50.810;8.342;2024-02-15T00:16:44;9.30;99.90
5806;DHT22;2929;50.810;8.342;2024-02-15T00:19:13;9.30;99.90
5806;DHT22;2929;50.810;8.342;2024-02-15T00:21:43;9.30;99.90
5806;DHT22;2929;50.810;8.342;2024-02-15T00:24:10;9.30;99.90
5806;DHT22;2929;50.810;8.342;2024-02-15T00:26:37;9.30;99.90
5806;DHT22;2929;50.810;8.342;2024-02-15T00:29:04;9.40;99.90
5806;DHT22;2929;50.810;8.342;2024-02-15T00:31:31;9.40;99.90
5806;DHT22;2929;50.810;8.342;2024-02-15T00:33:59;9.40;99.90
5806;DHT22;2929;50.810;8.342;2024-02-15T00:36:28;9.40;99.90
5806;DHT22;2929;50.810;8.342;2024-02-15T00:38:55;9.30;99.90
5806;DHT22;2929;50.810;8.342;2024-02-15T00:41:22;9.30;99.90
5806;DHT22;2929;50.810;8.342;2024-02-15T00:43:49;9.30;99.90
5806;DHT22;2929;50.810;8.342;2024-02-15T00:46:16;9.20;99.90
5806;DHT22;2929;50.810;8.342;2024-02-15T00:48:42;9.20;99.90
5806;DHT22;2929;50.810;8.342;2024-02-15T00:51:11;9.20;99.90
5806;DHT22;2929;50.810;8.342;2024-02-15T00:53:38;9.20;99.90
5806;DHT22;2929;50.810;8.342;2024-02-15T00:56:06;9.20;99.90
5806;DHT22;2929;50.810;8.342;2024-02-15T00:58:33;9.30;99.90
5806;DHT22;2929;50.810;8.342;2024-02-15T01:01:00;9.30;99.90
5806;DHT22;2929;50.810;8.342;2024-02-15T01:03:26;9.30;99.90
5806;DHT22;2929;50.810;8.342;2024-02-15T01:05:53;9.30;99.90
5806;DHT22;2929;50.810;8.342;2024-02-15T01:08:22;9.30;99.90
5806;DHT22;2929;50.810;8.342;2024-02-15T01:10:49;9.20;99.90
5806;DHT22;2929;50.810;8.342;2024-02-15T01:13:16;9.30;99.90
5806;DHT22;2929;50.810;8.342;2024-02-15T01:15:43;9.30;99.90
5806;DHT22;2929;50.810;8.342;2024-02-15T01:18:10;9.30;99.90
5806;DHT22;2929;50.810;8.342;2024-02-15T01:20:37;9.20;99.90
5806;DHT22;2929;50.810;8.342;2024-02-15T01:23:04;9.30;99.90
5806;DHT22;2929;50.810;8.342;2024-02-15T01:25:34;9.30;99.90
5806;DHT22;2929;50.810;8.342;2024-02-15T01:28:01;9.20;99.90
5806;DHT22;2929;50.810;8.342;2024-02-15T01:30:28;9.20;99.90
5806;DHT22;2929;50.810;8.342;2024-02-15T01:32:56;9.30;99.90
5806;DHT22;2929;50.810;8.342;2024-02-15T01:35:23;9.20;99.90
5806;DHT22;2929;50.810;8.342;2024-02-15T01:37:50;9.20;99.90
5806;DHT22;2929;50.810;8.342;2024-02-15T01:40:17;9.20;99.90
5806;DHT22;2929;50.810;8.342;2024-02-15T01:42:46;9.20;99.90
5806;DHT22;2929;50.810;8.342;2024-02-15T01:45:15;9.20;99.90
5806;DHT22;2929;50.810;8.342;2024-02-15T01:47:42;9.20;99.90
5806;DHT22;2929;50.810;8.342;2024-02-15T01:50:10;9.20;99.90
5806;DHT22;2929;50.810;8.342;2024-02-15T01:52:39;9.20;99.90
5806;DHT22;2929;50.810;8.342;2024-02-15T01:55:08;9.20;99.90
5806;DHT22;2929;50.810;8.342;2024-02-15T01:57:36;9.10;99.90
5806;DHT22;2929;50.810;8.342;2024-02-15T02:00:06;9.20;99.90
5806;DHT22;2929;50.810;8.342;2024-02-15T02:02:38;9.20;99.90
5806;DHT22;2929;50.810;8.342;2024-02-15T02:05:06;9.20;99.90
5806;DHT22;2929;50.810;8.342;2024-02-15T02:07:33;9.20;99.90
5806;DHT22;2929;50.810;8.342;2024-02-15T02:10:01;9.20;99.90
5806;DHT22;2929;50.810;8.342;2024-02-15T02:12:28;9.10;99.90
5806;DHT22;2929;50.810;8.342;2024-02-15T02:14:55;9.10;99.90
5806;DHT22;2929;50.810;8.342;2024-02-15T02:17:23;9.10;99.90
5806;DHT22;2929;50.810;8.342;2024-02-15T02:19:50;9.20;99.90
5806;DHT22;2929;50.810;8.342;2024-02-15T02:22:19;9.20;99.90
5806;DHT22;2929;50.810;8.342;2024-02-15T02:25:11;9.20;99.90
5806;DHT22;2929;50.810;8.342;2024-02-15T02:27:39;9.20;99.90
5806;DHT22;2929;50.810;8.342;2024-02-15T02:30:14;9.20;99.90
5806;DHT22;2929;50.810;8.342;2024-02-15T02:32:43;9.10;99.90
5806;DHT22;2929;50.810;8.342;2024-02-15T02:35:10;9.20;99.90
5806;DHT22;2929;50.810;8.342;2024-02-15T02:37:38;9.20;99.90
5806;DHT22;2929;50.810;8.342;2024-02-15T02:40:06;9.20;99.90
5806;DHT22;2929;50.810;8.342;2024-02-15T02:42:36;9.20;99.90
5806;DHT22;2929;50.810;8.342;2024-02-15T02:45:04;9.20;99.90
5806;DHT22;2929;50.810;8.342;2024-02-15T02:47:31;9.20;99.90
5806;DHT22;2929;50.810;8.342;2024-02-15T02:49:58;9.20;99.90
5806;DHT22;2929;50.810;8.342;2024-02-15T02:52:25;9.20;99.90
5806;DHT22;2929;50.810;8.342;2024-02-15T02:54:52;9.30;99.90
5806;DHT22;2929;50.810;8.342;2024-02-15T02:57:20;9.20;99.90
5806;DHT22;2929;50.810;8.342;2024-02-15T02:59:48;9.20;99.90
5806;DHT22;2929;50.810;8.342;2024-02-15T03:02:15;9.20;99.90
5806;DHT22;2929;50.810;8.342;2024-02-15T03:04:42;9.30;99.90
5806;DHT22;2929;50.810;8.342;2024-02-15T03:07:09;9.20;99.90
5806;DHT22;2929;50.810;8.342;2024-02-15T03:09:36;9.30;99.90
5806;DHT22;2929;50.810;8.342;2024-02-15T03:12:03;9.30;99.90
5806;DHT22;2929;50.810;8.342;2024-02-15T03:14:30;9.30;99.90
5806;DHT22;2929;50.810;8.342;2024-02-15T03:17:00;9.30;99.90
5806;DHT22;2929;50.810;8.342;2024-02-15T03:19:28;9.30;99.90
5806;DHT22;2929;50.810;8.342;2024-02-15T03:21:56;9.30;99.90
5806;DHT22;2929;50.810;8.342;2024-02-15T03:24:23;9.30;99.90
5806;DHT22;2929;50.810;8.342;2024-02-15T03:26:50;9.40;99.90
5806;DHT22;2929;50.810;8.342;2024-02-15T03:29:18;9.30;99.90
5806;DHT22;2929;50.810;8.342;2024-02-15T03:31:46;9.30;99.90
5806;DHT22;2929;50.810;8.342;2024-02-15T03:34:16;9.30;99.90
5806;DHT22;2929;50.810;8.342;2024-02-15T03:36:43;9.30;99.90
5806;DHT22;2929;50.810;8.342;2024-02-15T03:39:09;9.30;99.90
5806;DHT22;2929;50.810;8.342;2024-02-15T03:41:36;9.30;99.90
5806;DHT22;2929;50.810;8.342;2024-02-15T03:44:03;9.40;99.90
5806;DHT22;2929;50.810;8.342;2024-02-15T03:46:30;9.40;99.90
5806;DHT22;2929;50.810;8.342;2024-02-15T03:48:58;9.40;99.90
5806;DHT22;2929;50.810;8.342;2024-02-15T03:51:26;9.40;99.90
5806;DHT22;2929;50.810;8.342;2024-02-15T03:53:53;9.40;99.90
5806;DHT22;2929;50.810;8.342;2024-02-15T03:56:20;9.40;99.90
5806;DHT22;2929;50.810;8.342;2024-02-15T03:58:47;9.30;99.90
5806;DHT22;2929;50.810;8.342;2024-02-15T04:01:17;9.30;99.90
5806;DHT22;2929;50.810;8.342;2024-02-15T04:03:44;9.30;99.90
5806;DHT22;2929;50.810;8.342;2024-02-15T04:06:13;9.30;99.90
5806;DHT22;2929;50.810;8.342;2024-02-15T04:08:41;9.40;99.90
5806;DHT22;2929;50.810;8.342;2024-02-15T04:11:08;9.40;99.90
5806;DHT22;2929;50.810;8.342;2024-02-15T04:13:35;9.40;99.90
5806;DHT22;2929;50.810;8.342;2024-02-15T04:16:03;9.40;99.90
5806;DHT22;2929;50.810;8.342;2024-02-15T04:18:30;9.40;99.90
5806;DHT22;2929;50.810;8.342;2024-02-15T04:20:58;9.30;99.90
5806;DHT22;2929;50.810;8.342;2024-02-15T04:23:25;9.40;99.90
5806;DHT22;2929;50.810;8.342;2024-02-15T04:25:53;9.30;99.90
5806;DHT22;2929;50.810;8.342;2024-02-15T04:28:22;9.30;99.90
5806;DHT22;2929;50.810;8.342;2024-02-15T04:30:48;9.30;99.90
5806;DHT22;2929;50.810;8.342;2024-02-15T04:33:15;9.30;99.90
5806;DHT22;2929;50.810;8.342;2024-02-15T04:35:42;9.30;99.90
5806;DHT22;2929;50.810;8.342;2024-02-15T04:38:10;9.20;99.90
5806;DHT22;2929;50.810;8.342;2024-02-15T04:40:37;9.20;99.90
5806;DHT22;2929;50.810;8.342;2024-02-15T04:43:06;9.20;99.90
5806;DHT22;2929;50.810;8.342;2024-02-15T04:45:34;9.10;99.90
5806;DHT22;2929;50.810;8.342;2024-02-15T04:48:01;9.10;99.90
5806;DHT22;2929;50.810;8.342;2024-02-15T04:50:29;9.10;99.90
5806;DHT22;2929;50.810;8.342;2024-02-15T04:52:56;9.10;99.90
5806;DHT22;2929;50.810;8.342;2024-02-15T04:55:23;9.10;99.90
5806;DHT22;2929;50.810;8.342;2024-02-15T04:57:52;9.10;99.90
5806;DHT22;2929;50.810;8.342;2024-02-15T05:00:23;9.10;99.90
5806;DHT22;2929;50.810;8.342;2024-02-15T05:02:51;9.10;99.90
5806;DHT22;2929;50.810;8.342;2024-02-15T05:05:19;9.10;99.90
5806;DHT22;2929;50.810;8.342;2024-02-15T05:07:47;9.10;99.90
5806;DHT22;2929;50.810;8.342;2024-02-15T05:10:16;9.10;99.90
5806;DHT22;2929;50.810;8.342;2024-02-15T05:12:47;9.20;99.90
5806;DHT22;2929;50.810;8.342;2024-02-15T05:15:20;9.10;99.90
5806;DHT22;2929;50.810;8.342;2024-02-15T05:17:51;9.10;99.90
5806;DHT22;2929;50.810;8.342;2024-02-15T05:20:19;9.00;99.90
5806;DHT22;2929;50.810;8.342;2024-02-15T05:22:47;9.00;99.90
5806;DHT22;2929;50.810;8.342;2024-02-15T05:25:14;9.00;99.90
5806;DHT22;2929;50.810;8.342;2024-02-15T05:27:41;9.00;99.90
5806;DHT22;2929;50.810;8.342;2024-02-15T05:30:11;8.90;99.90
5806;DHT22;2929;50.810;8.342;2024-02-15T05:32:40;8.90;99.90
5806;DHT22;2929;50.810;8.342;2024-02-15T05:35:11;9.00;99.90
5806;DHT22;2929;50.810;8.342;2024-02-15T05:37:38;8.90;99.90
5806;DHT22;2929;50.810;8.342;2024-02-15T05:40:06;8.90;99.90
5806;DHT22;2929;50.810;8.342;2024-02-15T05:42:41;8.90;99.90
5806;DHT22;2929;50.810;8.342;2024-02-15T05:45:30;8.90;99.90
5806;DHT22;2929;50.810;8.342;2024-02-15T05:47:58;8.90;99.90
5806;DHT22;2929;50.810;8.342;2024-02-15T05:50:27;8.80;99.90
5806;DHT22;2929;50.810;8.342;2024-02-15T05:52:55;8.80;99.90
5806;DHT22;2929;50.810;8.342;2024-02-15T05:55:24;8.80;99.90
5806;DHT22;2929;50.810;8.342;2024-02-15T05:57:52;8.70;99.90
5806;DHT22;2929;50.810;8.342;2024-02-15T06:00:20;8.70;99.90
5806;DHT22;2929;50.810;8.342;2024-02-15T06:02:47;8.70;99.90
5806;DHT22;2929;50.810;8.342;2024-02-15T06:05:15;8.60;99.90
5806;DHT22;2929;50.810;8.342;2024-02-15T06:07:44;8.50;99.90
5806;DHT22;2929;50.810;8.342;2024-02-15T06:10:11;8.40;99.90
5806;DHT22;2929;50.810;8.342;2024-02-15T06:12:40;8.40;99.90
5806;DHT22;2929;50.810;8.342;2024-02-15T06:15:08;8.40;99.90
5806;DHT22;2929;50.810;8.342;2024-02-15T06:17:41;8.40;99.90
5806;DHT22;2929;50.810;8.342;2024-02-15T06:20:11;8.60;99.90
5806;DHT22;2929;50.810;8.342;2024-02-15T06:22:40;8.70;99.90
5806;DHT22;2929;50.810;8.342;2024-02-15T06:25:09;8.70;99.90
5806;DHT22;2929;50.810;8.342;2024-02-15T06:27:37;8.70;99.90
5806;DHT22;2929;50.810;8.342;2024-02-15T06:30:07;8.70;99.90
5806;DHT22;2929;50.810;8.342;2024-02-15T06:32:52;8.70;99.90
5806;DHT22;2929;50.810;8.342;2024-02-15T06:35:37;8.70;99.90
5806;DHT22;2929;50.810;8.342;2024-02-15T06:38:22;8.80;99.90
5806;DHT22;2929;50.810;8.342;2024-02-15T06:41:08;8.80;99.90
5806;DHT22;2929;50.810;8.342;2024-02-15T06:43:35;8.90;99.90
5806;DHT22;2929;50.810;8.342;2024-02-15T06:46:05;8.90;99.90
5806;DHT22;2929;50.810;8.342;2024-02-15T06:48:32;9.10;99.90
5806;DHT22;2929;50.810;8.342;2024-02-15T06:51:00;9.10;99.90
5806;DHT22;2929;50.810;8.342;2024-02-15T06:53:26;9.00;99.90
5806;DHT22;2929;50.810;8.342;2024-02-15T06:55:53;9.10;99.90
5806;DHT22;2929;50.810;8.342;2024-02-15T06:58:22;9.10;99.90
5806;DHT22;2929;50.810;8.342;2024-02-15T07:00:49;9.10;99.90
5806;DHT22;2929;50.810;8.342;2024-02-15T07:03:17;9.10;99.90
5806;DHT22;2929;50.810;8.342;2024-02-15T07:05:44;9.00;99.90
5806;DHT22;2929;50.810;8.342;2024-02-15T07:08:11;9.00;99.90
5806;DHT22;2929;50.810;8.342;2024-02-15T07:10:38;9.00;99.90
5806;DHT22;2929;50.810;8.342;2024-02-15T07:13:05;9.00;99.90
5806;DHT22;2929;50.810;8.342;2024-02-15T07:15:34;9.00;99.90
5806;DHT22;2929;50.810;8.342;2024-02-15T07:18:04;9.00;99.90
5806;DHT22;2929;50.810;8.342;2024-02-15T07:20:32;9.10;99.90
5806;DHT22;2929;50.810;8.342;2024-02-15T07:22:59;9.10;99.90
5806;DHT22;2929;50.810;8.342;2024-02-15T07:25:26;9.10;99.90
5806;DHT22;2929;50.810;8.342;2024-02-15T07:27:53;9.10;99.90
5806;DHT22;2929;50.810;8.342;2024-02-15T07:30:21;9.10;99.90
5806;DHT22;2929;50.810;8.342;2024-02-15T07:32:49;9.10;99.90
5806;DHT22;2929;50.810;8.342;2024-02-15T07:35:17;9.20;99.90
5806;DHT22;2929;50.810;8.342;2024-02-15T07:37:51;9.20;99.90
5806;DHT22;2929;50.810;8.342;2024-02-15T07:40:22;9.20;99.90
5806;DHT22;2929;50.810;8.342;2024-02-15T07:42:54;9.20;99.90
5806;DHT22;2929;50.810;8.342;2024-02-15T07:45:22;9.20;99.90
5806;DHT22;2929;50.810;8.342;2024-02-15T07:47:50;9.30;99.90
5806;DHT22;2929;50.810;8.342;2024-02-15T07:50:17;9.30;99.90
5806;DHT22;2929;50.810;8.342;2024-02-15T07:52:49;9.40;99.90
5806;DHT22;2929;50.810;8.342;2024-02-15T07:55:16;9.40;99.90
5806;DHT22;2929;50.810;8.342;2024-02-15T07:57:43;9.40;99.90
5806;DHT22;2929;50.810;8.342;2024-02-15T08:00:12;9.40;99.90
5806;DHT22;2929;50.810;8.342;2024-02-15T08:02:42;9.40;99.90
5806;DHT22;2929;50.810;8.342;2024-02-15T08:05:11;9.40;99.90
5806;DHT22;2929;50.810;8.342;2024-02-15T08:07:41;9.40;99.90
5806;DHT22;2929;50.810;8.342;2024-02-15T08:10:10;9.40;99.90
5806;DHT22;2929;50.810;8.342;2024-02-15T08:12:39;9.40;99.90
5806;DHT22;2929;50.810;8.342;2024-02-15T08:15:07;9.40;99.90
5806;DHT22;2929;50.810;8.342;2024-02-15T08:17:38;9.40;99.90
5806;DHT22;2929;50.810;8.342;2024-02-15T08:20:07;9.40;99.90
5806;DHT22;2929;50.810;8.342;2024-02-15T08:22:36;9.40;99.90
5806;DHT22;2929;50.810;8.342;2024-02-15T08:25:06;9.50;99.90
5806;DHT22;2929;50.810;8.342;2024-02-15T08:27:38;9.50;99.90
5806;DHT22;2929;50.810;8.342;2024-02-15T08:30:09;9.50;99.90
5806;DHT22;2929;50.810;8.342;2024-02-15T08:32:37;9.60;99.90
5806;DHT22;2929;50.810;8.342;2024-02-15T08:35:06;9.60;99.90
5806;DHT22;2929;50.810;8.342;2024-02-15T08:37:35;9.60;99.90
5806;DHT22;2929;50.810;8.342;2024-02-15T08:40:04;9.70;99.90
5806;DHT22;2929;50.810;8.342;2024-02-15T08:42:36;9.80;99.90
5806;DHT22;2929;50.810;8.342;2024-02-15T08:45:04;9.80;99.90
5806;DHT22;2929;50.810;8.342;2024-02-15T08:47:35;9.90;99.90
5806;DHT22;2929;50.810;8.342;2024-02-15T08:50:04;9.90;99.90
5806;DHT22;2929;50.810;8.342;2024-02-15T08:52:32;10.00;99.90
5806;DHT22;2929;50.810;8.342;2024-02-15T08:55:00;10.00;99.90
5806;DHT22;2929;50.810;8.342;2024-02-15T08:57:27;10.10;99.90
5806;DHT22;2929;50.810;8.342;2024-02-15T08:59:54;10.10;99.90
5806;DHT22;2929;50.810;8.342;2024-02-15T09:02:21;10.10;99.90
5806;DHT22;2929;50.810;8.342;2024-02-15T09:04:47;10.20;99.90
5806;DHT22;2929;50.810;8.342;2024-02-15T09:07:14;10.20;99.90
5806;DHT22;2929;50.810;8.342;2024-02-15T09:09:41;10.20;99.90
5806;DHT22;2929;50.810;8.342;2024-02-15T09:12:10;10.20;99.90
5806;DHT22;2929;50.810;8.342;2024-02-15T09:14:38;10.30;99.90
5806;DHT22;2929;50.810;8.342;2024-02-15T09:17:05;10.30;99.90
5806;DHT22;2929;50.810;8.342;2024-02-15T09:19:33;10.40;99.90
5806;DHT22;2929;50.810;8.342;2024-02-15T09:22:01;10.40;99.90
5806;DHT22;2929;50.810;8.342;2024-02-15T09:24:30;10.50;99.90
5806;DHT22;2929;50.810;8.342;2024-02-15T09:26:58;10.50;99.90
5806;DHT22;2929;50.810;8.342;2024-02-15T09:29:28;10.50;99.90
5806;DHT22;2929;50.810;8.342;2024-02-15T09:31:55;10.50;99.90
5806;DHT22;2929;50.810;8.342;2024-02-15T09:34:23;10.50;99.90
5806;DHT22;2929;50.810;8.342;2024-02-15T09:36:50;10.50;99.90
5806;DHT22;2929;50.810;8.342;2024-02-15T09:39:17;10.60;99.90
5806;DHT22;2929;50.810;8.342;2024-02-15T09:41:44;10.60;99.90
5806;DHT22;2929;50.810;8.342;2024-02-15T09:44:11;10.60;99.90
5806;DHT22;2929;50.810;8.342;2024-02-15T09:46:43;10.70;99.90
5806;DHT22;2929;50.810;8.342;2024-02-15T09:49:12;10.80;99.90
5806;DHT22;2929;50.810;8.342;2024-02-15T09:51:40;10.80;99.90
5806;DHT22;2929;50.810;8.342;2024-02-15T09:54:08;10.90;99.90
5806;DHT22;2929;50.810;8.342;2024-02-15T09:56:36;11.00;99.90
5806;DHT22;2929;50.810;8.342;2024-02-15T09:59:03;11.00;99.90
5806;DHT22;2929;50.810;8.342;2024-02-15T10:01:31;11.10;99.90
5806;DHT22;2929;50.810;8.342;2024-02-15T10:04:02;11.20;99.90
5806;DHT22;2929;50.810;8.342;2024-02-15T10:06:32;11.30;99.90
5806;DHT22;2929;50.810;8.342;2024-02-15T10:09:23;11.30;99.90
5806;DHT22;2929;50.810;8.342;2024-02-15T10:11:53;11.40;99.90
5806;DHT22;2929;50.810;8.342;2024-02-15T10:14:21;11.50;99.90
5806;DHT22;2929;50.810;8.342;2024-02-15T10:16:48;11.50;99.90
5806;DHT22;2929;50.810;8.342;2024-02-15T10:19:18;11.50;99.90
5806;DHT22;2929;50.810;8.342;2024-02-15T10:21:46;11.60;99.90
5806;DHT22;2929;50.810;8.342;2024-02-15T10:24:13;11.70;99.90
5806;DHT22;2929;50.810;8.342;2024-02-15T10:26:40;11.70;99.90
5806;DHT22;2929;50.810;8.342;2024-02-15T10:29:09;11.70;99.90
5806;DHT22;2929;50.810;8.342;2024-02-15T10:31:37;11.60;99.90
5806;DHT22;2929;50.810;8.342;2024-02-15T10:34:06;11.70;99.90
5806;DHT22;2929;50.810;8.342;2024-02-15T10:36:34;11.70;99.90
5806;DHT22;2929;50.810;8.342;2024-02-15T10:39:11;11.70;99.90
5806;DHT22;2929;50.810;8.342;2024-02-15T10:41:44;11.70;99.90
5806;DHT22;2929;50.810;8.342;2024-02-15T10:44:16;11.70;99.90
5806;DHT22;2929;50.810;8.342;2024-02-15T10:46:45;11.80;99.90
5806;DHT22;2929;50.810;8.342;2024-02-15T10:49:13;11.90;99.90
5806;DHT22;2929;50.810;8.342;2024-02-15T10:51:43;12.00;99.90
5806;DHT22;2929;50.810;8.342;2024-02-15T10:54:12;12.10;99.90
5806;DHT22;2929;50.810;8.342;2024-02-15T10:56:43;12.10;99.90
5806;DHT22;2929;50.810;8.342;2024-02-15T10:59:17;12.20;99.90
5806;DHT22;2929;50.810;8.342;2024-02-15T11:01:45;12.20;99.90
5806;DHT22;2929;50.810;8.342;2024-02-15T11:04:15;12.40;99.90
5806;DHT22;2929;50.810;8.342;2024-02-15T11:06:43;12.50;99.90
5806;DHT22;2929;50.810;8.342;2024-02-15T11:09:11;12.50;99.90
5806;DHT22;2929;50.810;8.342;2024-02-15T11:11:40;12.50;99.90
5806;DHT22;2929;50.810;8.342;2024-02-15T11:14:23;12.80;99.90
5806;DHT22;2929;50.810;8.342;2024-02-15T11:16:50;13.00;99.90
5806;DHT22;2929;50.810;8.342;2024-02-15T11:19:42;13.00;99.90
5806;DHT22;2929;50.810;8.342;2024-02-15T11:22:15;12.90;99.90
5806;DHT22;2929;50.810;8.342;2024-02-15T11:24:46;12.80;99.90
5806;DHT22;2929;50.810;8.342;2024-02-15T11:27:24;12.70;99.90
5806;DHT22;2929;50.810;8.342;2024-02-15T11:29:53;12.60;99.90
5806;DHT22;2929;50.810;8.342;2024-02-15T11:32:35;12.60;99.90
5806;DHT22;2929;50.810;8.342;2024-02-15T11:35:03;12.50;99.90
5806;DHT22;2929;50.810;8.342;2024-02-15T11:37:57;12.50;99.90
5806;DHT22;2929;50.810;8.342;2024-02-15T11:41:02;12.40;99.90
5806;DHT22;2929;50.810;8.342;2024-02-15T11:43:49;12.40;99.90
5806;DHT22;2929;50.810;8.342;2024-02-15T11:46:20;12.50;99.90
5806;DHT22;2929;50.810;8.342;2024-02-15T11:48:48;12.50;99.90
5806;DHT22;2929;50.810;8.342;2024-02-15T11:51:26;12.50;99.90
5806;DHT22;2929;50.810;8.342;2024-02-15T11:54:05;12.50;99.90
5806;DHT22;2929;50.810;8.342;2024-02-15T11:56:51;12.40;99.90
5806;DHT22;2929;50.810;8.342;2024-02-15T11:59:20;12.40;99.90
5806;DHT22;2929;50.810;8.342;2024-02-15T12:01:57;12.40;99.90
5806;DHT22;2929;50.810;8.342;2024-02-15T12:04:42;12.50;99.90
5806;DHT22;2929;50.810;8.342;2024-02-15T12:07:27;12.50;99.90
5806;DHT22;2929;50.810;8.342;2024-02-15T12:10:17;12.50;99.90
5806;DHT22;2929;50.810;8.342;2024-02-15T12:13:02;12.50;99.90
5806;DHT22;2929;50.810;8.342;2024-02-15T12:15:59;12.60;99.90
5806;DHT22;2929;50.810;8.342;2024-02-15T12:18:45;12.70;99.90
5806;DHT22;2929;50.810;8.342;2024-02-15T12:21:20;12.80;99.90
5806;DHT22;2929;50.810;8.342;2024-02-15T12:23:48;13.00;99.90
5806;DHT22;2929;50.810;8.342;2024-02-15T12:26:20;13.00;99.90
5806;DHT22;2929;50.810;8.342;2024-02-15T12:28:52;13.10;99.90
5806;DHT22;2929;50.810;8.342;2024-02-15T12:31:20;13.10;99.90
5806;DHT22;2929;50.810;8.342;2024-02-15T12:34:00;13.10;99.90
5806;DHT22;2929;50.810;8.342;2024-02-15T12:36:27;13.00;99.90
5806;DHT22;2929;50.810;8.342;2024-02-15T12:38:59;13.10;99.90
5806;DHT22;2929;50.810;8.342;2024-02-15T12:41:28;13.10;99.90
5806;DHT22;2929;50.810;8.342;2024-02-15T12:43:56;13.10;99.90
5806;DHT22;2929;50.810;8.342;2024-02-15T12:46:23;13.10;99.90
5806;DHT22;2929;50.810;8.342;2024-02-15T12:49:07;13.10;99.90
5806;DHT22;2929;50.810;8.342;2024-02-15T12:51:34;13.20;99.90
5806;DHT22;2929;50.810;8.342;2024-02-15T12:54:08;13.30;99.90
5806;DHT22;2929;50.810;8.342;2024-02-15T12:56:37;13.20;99.90
5806;DHT22;2929;50.810;8.342;2024-02-15T12:59:06;13.30;99.90
5806;DHT22;2929;50.810;8.342;2024-02-15T13:01:33;13.30;99.90
5806;DHT22;2929;50.810;8.342;2024-02-15T13:04:00;13.30;99.90
5806;DHT22;2929;50.810;8.342;2024-02-15T13:06:27;13.30;99.90
5806;DHT22;2929;50.810;8.342;2024-02-15T13:08:54;13.20;99.90
5806;DHT22;2929;50.810;8.342;2024-02-15T13:11:21;13.20;99.90
5806;DHT22;2929;50.810;8.342;2024-02-15T13:13:50;13.20;99.90
5806;DHT22;2929;50.810;8.342;2024-02-15T13:16:18;13.20;99.90
5806;DHT22;2929;50.810;8.342;2024-02-15T13:18:45;13.20;99.90
5806;DHT22;2929;50.810;8.342;2024-02-15T13:21:12;13.20;99.90
5806;DHT22;2929;50.810;8.342;2024-02-15T13:23:39;13.20;99.90
5806;DHT22;2929;50.810;8.342;2024-02-15T13:26:06;13.20;99.90
5806;DHT22;2929;50.810;8.342;2024-02-15T13:28:33;13.20;99.90
5806;DHT22;2929;50.810;8.342;2024-02-15T13:31:02;13.30;99.90
5806;DHT22;2929;50.810;8.342;2024-02-15T13:33:29;13.30;99.90
5806;DHT22;2929;50.810;8.342;2024-02-15T13:35:57;13.30;99.90
5806;DHT22;2929;50.810;8.342;2024-02-15T13:38:24;13.20;99.90
5806;DHT22;2929;50.810;8.342;2024-02-15T13:40:52;13.30;99.90
5806;DHT22;2929;50.810;8.342;2024-02-15T13:43:21;13.30;99.90
5806;DHT22;2929;50.810;8.342;2024-02-15T13:45:48;13.40;99.90
5806;DHT22;2929;50.810;8.342;2024-02-15T13:48:16;13.40;99.90
5806;DHT22;2929;50.810;8.342;2024-02-15T13:50:43;13.50;99.90
5806;DHT22;2929;50.810;8.342;2024-02-15T13:53:10;13.40;99.90
5806;DHT22;2929;50.810;8.342;2024-02-15T13:55:39;13.30;99.90
5806;DHT22;2929;50.810;8.342;2024-02-15T13:58:06;13.30;99.90
5806;DHT22;2929;50.810;8.342;2024-02-15T14:00:37;13.30;99.90
5806;DHT22;2929;50.810;8.342;2024-02-15T14:03:08;13.30;99.90
5806;DHT22;2929;50.810;8.342;2024-02-15T14:05:37;13.20;99.90
5806;DHT22;2929;50.810;8.342;2024-02-15T14:08:06;13.30;99.90
5806;DHT22;2929;50.810;8.342;2024-02-15T14:10:35;13.20;99.90
5806;DHT22;2929;50.810;8.342;2024-02-15T14:13:02;13.20;99.90
5806;DHT22;2929;50.810;8.342;2024-02-15T14:15:32;13.20;99.90
5806;DHT22;2929;50.810;8.342;2024-02-15T14:18:03;13.00;99.90
5806;DHT22;2929;50.810;8.342;2024-02-15T14:20:30;13.00;99.90
5806;DHT22;2929;50.810;8.342;2024-02-15T14:22:59;13.00;99.90
5806;DHT22;2929;50.810;8.342;2024-02-15T14:25:31;13.00;99.90
5806;DHT22;2929;50.810;8.342;2024-02-15T14:27:59;12.90;99.90
5806;DHT22;2929;50.810;8.342;2024-02-15T14:30:27;12.80;99.90
5806;DHT22;2929;50.810;8.342;2024-02-15T14:33:11;12.90;99.90
5806;DHT22;2929;50.810;8.342;2024-02-15T14:35:41;12.80;99.90
5806;DHT22;2929;50.810;8.342;2024-02-15T14:38:11;12.80;99.90
5806;DHT22;2929;50.810;8.342;2024-02-15T14:40:40;12.80;99.90
5806;DHT22;2929;50.810;8.342;2024-02-15T14:43:10;12.80;99.90
5806;DHT22;2929;50.810;8.342;2024-02-15T14:45:39;12.70;99.90
5806;DHT22;2929;50.810;8.342;2024-02-15T14:48:07;12.70;99.90
5806;DHT22;2929;50.810;8.342;2024-02-15T14:50:37;12.70;99.90
5806;DHT22;2929;50.810;8.342;2024-02-15T14:53:06;12.60;99.90
5806;DHT22;2929;50.810;8.342;2024-02-15T14:55:35;12.60;99.90
5806;DHT22;2929;50.810;8.342;2024-02-15T14:58:04;12.60;99.90
5806;DHT22;2929;50.810;8.342;2024-02-15T15:00:31;12.60;99.90
5806;DHT22;2929;50.810;8.342;2024-02-15T15:03:24;12.50;99.90
5806;DHT22;2929;50.810;8.342;2024-02-15T15:05:52;12.50;99.90
5806;DHT22;2929;50.810;8.342;2024-02-15T15:08:37;12.40;99.90
5806;DHT22;2929;50.810;8.342;2024-02-15T15:14:48;12.30;99.90
5806;DHT22;2929;50.810;8.342;2024-02-15T15:17:15;12.30;99.90
5806;DHT22;2929;50.810;8.342;2024-02-15T15:19:43;12.30;99.90
5806;DHT22;2929;50.810;8.342;2024-02-15T15:22:20;12.20;99.90
5806;DHT22;2929;50.810;8.342;2024-02-15T15:25:08;12.20;99.90
5806;DHT22;2929;50.810;8.342;2024-02-15T15:27:37;12.20;99.90
5806;DHT22;2929;50.810;8.342;2024-02-15T15:30:06;12.10;99.90
5806;DHT22;2929;50.810;8.342;2024-02-15T15:32:33;12.10;99.90
5806;DHT22;2929;50.810;8.342;2024-02-15T15:35:02;12.00;99.90
5806;DHT22;2929;50.810;8.342;2024-02-15T15:37:29;12.00;99.90
5806;DHT22;2929;50.810;8.342;2024-02-15T15:40:01;12.00;99.90
5806;DHT22;2929;50.810;8.342;2024-02-15T15:42:29;12.10;99.90
5806;DHT22;2929;50.810;8.342;2024-02-15T15:44:58;12.00;99.90
5806;DHT22;2929;50.810;8.342;2024-02-15T15:47:24;12.00;99.90
5806;DHT22;2929;50.810;8.342;2024-02-15T15:49:51;12.10;99.90
5806;DHT22;2929;50.810;8.342;2024-02-15T15:52:23;12.00;99.90
5806;DHT22;2929;50.810;8.342;2024-02-15T15:54:51;12.00;99.90
5806;DHT22;2929;50.810;8.342;2024-02-15T15:57:18;12.00;99.90
5806;DHT22;2929;50.810;8.342;2024-02-15T15:59:46;11.90;99.90
5806;DHT22;2929;50.810;8.342;2024-02-15T16:02:15;11.90;99.90
5806;DHT22;2929;50.810;8.342;2024-02-15T16:04:43;11.90;99.90
5806;DHT22;2929;50.810;8.342;2024-02-15T16:07:11;11.80;99.90
5806;DHT22;2929;50.810;8.342;2024-02-15T16:09:38;11.80;99.90
5806;DHT22;2929;50.810;8.342;2024-02-15T16:12:10;11.70;99.90
5806;DHT22;2929;50.810;8.342;2024-02-15T16:14:39;11.70;99.90
5806;DHT22;2929;50.810;8.342;2024-02-15T16:17:06;11.60;99.90
5806;DHT22;2929;50.810;8.342;2024-02-15T16:19:36;11.70;99.90
5806;DHT22;2929;50.810;8.342;2024-02-15T16:22:03;11.60;99.90
5806;DHT22;2929;50.810;8.342;2024-02-15T16:24:31;11.60;99.90
5806;DHT22;2929;50.810;8.342;2024-02-15T16:26:59;11.60;99.90
5806;DHT22;2929;50.810;8.342;2024-02-15T16:29:28;11.60;99.90